sensor_id;sensor_type;location;lat;lon;timestamp;pressure;altitude;pressure_sealevel;temperature;humidity
14383;BME280;7275;50.328;8.720;2023-07-13T00:02:09;99597.19;;;25.29;33.32
14383;BME280;7275;50.328;8.720;2023-07-13T00:04:36;99600.91;;;25.28;33.75
14383;BME280;7275;50.328;8.720;2023-07-13T00:07:04;99593.78;;;25.27;34.10
14383;BME280;7275;50.328;8.720;2023-07-13T00:09:32;99599.03;;;25.28;34.01
14383;BME280;7275;50.328;8.720;2023-07-13T00:12:01;99595.31;;;25.29;33.71
14383;BME280;7275;50.328;8.720;2023-07-13T00:14:29;99600.59;;;25.31;33.53
14383;BME280;7275;50.328;8.720;2023-07-13T00:16:56;99593.84;;;25.35;33.36
14383;BME280;7275;50.328;8.720;2023-07-13T00:19:26;99599.66;;;25.40;33.42
14383;BME280;7275;50.328;8.720;2023-07-13T00:21:54;99609.91;;;25.46;33.31
14383;BME280;7275;50.328;8.720;2023-07-13T00:24:22;99602.34;;;25.50;33.27
14383;BME280;7275;50.328;8.720;2023-07-13T00:26:51;99603.72;;;25.54;32.99
14383;BME280;7275;50.328;8.720;2023-07-13T00:29:20;99603.09;;;25.60;33.22
14383;BME280;7275;50.328;8.720;2023-07-13T00:31:48;99602.63;;;25.64;33.00
14383;BME280;7275;50.328;8.720;2023-07-13T00:34:15;99595.91;;;25.68;33.01
14383;BME280;7275;50.328;8.720;2023-07-13T00:36:43;99597.28;;;25.72;32.80
14383;BME280;7275;50.328;8.720;2023-07-13T00:39:11;99596.84;;;25.77;32.92
14383;BME280;7275;50.328;8.720;2023-07-13T00:41:38;99600.41;;;25.77;32.72
14383;BME280;7275;50.328;8.720;2023-07-13T00:44:10;99595.69;;;25.79;32.90
14383;BME280;7275;50.328;8.720;2023-07-13T00:46:42;99608.75;;;25.84;32.88
14383;BME280;7275;50.328;8.720;2023-07-13T00:49:12;99603.88;;;25.87;32.74
14383;BME280;7275;50.328;8.720;2023-07-13T00:51:43;99606.41;;;25.89;32.77
14383;BME280;7275;50.328;8.720;2023-07-13T00:54:14;99609.84;;;25.91;32.79
14383;BME280;7275;50.328;8.720;2023-07-13T00:56:47;99608.13;;;25.90;32.71
14383;BME280;7275;50.328;8.720;2023-07-13T00:59:16;99608.13;;;25.90;32.60
14383;BME280;7275;50.328;8.720;2023-07-13T01:01:47;99612.69;;;25.89;32.59
14383;BME280;7275;50.328;8.720;2023-07-13T01:04:15;99602.72;;;25.90;32.46
14383;BME280;7275;50.328;8.720;2023-07-13T01:06:43;99605.41;;;25.90;32.42
14383;BME280;7275;50.328;8.720;2023-07-13T01:09:11;99609.28;;;25.87;32.45
14383;BME280;7275;50.328;8.720;2023-07-13T01:11:40;99614.53;;;25.89;32.51
14383;BME280;7275;50.328;8.720;2023-07-13T01:14:08;99615.72;;;25.86;32.59
14383;BME280;7275;50.328;8.720;2023-07-13T01:16:37;99609.75;;;25.83;32.33
14383;BME280;7275;50.328;8.720;2023-07-13T01:19:13;99606.22;;;25.82;32.43
14383;BME280;7275;50.328;8.720;2023-07-13T01:21:49;99612.78;;;25.80;32.56
14383;BME280;7275;50.328;8.720;2023-07-13T01:24:17;99610.25;;;25.78;32.67
14383;BME280;7275;50.328;8.720;2023-07-13T01:26:45;99602.25;;;25.77;32.61
14383;BME280;7275;50.328;8.720;2023-07-13T01:29:13;99607.13;;;25.73;32.79
14383;BME280;7275;50.328;8.720;2023-07-13T01:31:40;99605.59;;;25.71;32.82
14383;BME280;7275;50.328;8.720;2023-07-13T01:34:08;99598.63;;;25.68;32.97
14383;BME280;7275;50.328;8.720;2023-07-13T01:36:35;99596.94;;;25.67;32.95
14383;BME280;7275;50.328;8.720;2023-07-13T01:39:04;99593.38;;;25.67;32.97
14383;BME280;7275;50.328;8.720;2023-07-13T01:41:32;99589.09;;;25.64;32.84
14383;BME280;7275;50.328;8.720;2023-07-13T01:44:00;99584.00;;;25.61;32.99
14383;BME280;7275;50.328;8.720;2023-07-13T01:46:27;99590.75;;;25.57;32.90
14383;BME280;7275;50.328;8.720;2023-07-13T01:48:55;99586.25;;;25.48;32.66
14383;BME280;7275;50.328;8.720;2023-07-13T01:51:24;99593.28;;;25.41;33.06
14383;BME280;7275;50.328;8.720;2023-07-13T01:53:51;99598.97;;;25.38;33.12
14383;BME280;7275;50.328;8.720;2023-07-13T01:56:20;99585.19;;;25.31;33.24
14383;BME280;7275;50.328;8.720;2023-07-13T01:58:48;99594.47;;;25.29;33.38
14383;BME280;7275;50.328;8.720;2023-07-13T02:01:15;99591.38;;;25.24;33.28
14383;BME280;7275;50.328;8.720;2023-07-13T02:03:43;99597.94;;;25.21;33.20
14383;BME280;7275;50.328;8.720;2023-07-13T02:06:10;99598.13;;;25.20;33.34
14383;BME280;7275;50.328;8.720;2023-07-13T02:08:40;99600.09;;;25.18;33.25
14383;BME280;7275;50.328;8.720;2023-07-13T02:11:08;99607.81;;;25.13;33.18
14383;BME280;7275;50.328;8.720;2023-07-13T02:13:37;99600.00;;;25.10;33.06
14383;BME280;7275;50.328;8.720;2023-07-13T02:16:05;99594.91;;;25.07;33.16
14383;BME280;7275;50.328;8.720;2023-07-13T02:18:32;99590.81;;;25.03;33.07
14383;BME280;7275;50.328;8.720;2023-07-13T02:21:00;99591.25;;;24.98;33.09
14383;BME280;7275;50.328;8.720;2023-07-13T02:23:29;99587.44;;;24.91;32.84
14383;BME280;7275;50.328;8.720;2023-07-13T02:25:57;99595.88;;;24.88;32.90
14383;BME280;7275;50.328;8.720;2023-07-13T02:28:25;99596.47;;;24.82;32.82
14383;BME280;7275;50.328;8.720;2023-07-13T02:30:54;99599.63;;;24.78;32.64
14383;BME280;7275;50.328;8.720;2023-07-13T02:33:22;99606.16;;;24.75;32.43
14383;BME280;7275;50.328;8.720;2023-07-13T02:35:49;99597.31;;;24.73;32.54
14383;BME280;7275;50.328;8.720;2023-07-13T02:38:18;99601.31;;;24.69;32.73
14383;BME280;7275;50.328;8.720;2023-07-13T02:40:46;99598.06;;;24.66;32.67
14383;BME280;7275;50.328;8.720;2023-07-13T02:43:14;99604.75;;;24.61;32.76
14383;BME280;7275;50.328;8.720;2023-07-13T02:45:43;99602.38;;;24.58;33.20
14383;BME280;7275;50.328;8.720;2023-07-13T02:48:13;99602.97;;;24.52;33.07
14383;BME280;7275;50.328;8.720;2023-07-13T02:50:41;99602.53;;;24.47;33.30
14383;BME280;7275;50.328;8.720;2023-07-13T02:53:08;99602.53;;;24.47;33.10
14383;BME280;7275;50.328;8.720;2023-07-13T02:55:36;99596.03;;;24.40;33.14
14383;BME280;7275;50.328;8.720;2023-07-13T02:58:03;99612.38;;;24.39;33.28
14383;BME280;7275;50.328;8.720;2023-07-13T03:00:32;99611.53;;;24.38;33.14
14383;BME280;7275;50.328;8.720;2023-07-13T03:03:00;99615.38;;;24.36;33.40
14383;BME280;7275;50.328;8.720;2023-07-13T03:05:29;99619.94;;;24.35;33.32
14383;BME280;7275;50.328;8.720;2023-07-13T03:07:57;99624.63;;;24.33;33.54
14383;BME280;7275;50.328;8.720;2023-07-13T03:10:24;99625.63;;;24.32;33.48
14383;BME280;7275;50.328;8.720;2023-07-13T03:12:52;99634.47;;;24.34;33.36
14383;BME280;7275;50.328;8.720;2023-07-13T03:15:19;99644.69;;;24.31;33.31
14383;BME280;7275;50.328;8.720;2023-07-13T03:17:47;99647.38;;;24.31;33.27
14383;BME280;7275;50.328;8.720;2023-07-13T03:20:15;99646.69;;;24.29;33.37
14383;BME280;7275;50.328;8.720;2023-07-13T03:22:45;99657.91;;;24.24;33.58
14383;BME280;7275;50.328;8.720;2023-07-13T03:25:12;99649.13;;;24.13;34.08
14383;BME280;7275;50.328;8.720;2023-07-13T03:27:40;99656.81;;;24.08;33.81
14383;BME280;7275;50.328;8.720;2023-07-13T03:30:08;99655.97;;;24.07;33.92
14383;BME280;7275;50.328;8.720;2023-07-13T03:32:36;99655.13;;;24.07;34.10
14383;BME280;7275;50.328;8.720;2023-07-13T03:35:04;99662.50;;;24.05;33.77
14383;BME280;7275;50.328;8.720;2023-07-13T03:37:32;99671.72;;;24.02;34.31
14383;BME280;7275;50.328;8.720;2023-07-13T03:40:01;99673.69;;;24.00;34.27
14383;BME280;7275;50.328;8.720;2023-07-13T03:42:29;99676.41;;;24.00;34.40
14383;BME280;7275;50.328;8.720;2023-07-13T03:44:56;99687.34;;;23.99;34.40
14383;BME280;7275;50.328;8.720;2023-07-13T03:47:24;99693.88;;;23.96;34.41
14383;BME280;7275;50.328;8.720;2023-07-13T03:49:51;99687.78;;;23.94;34.80
14383;BME280;7275;50.328;8.720;2023-07-13T03:52:19;99695.44;;;23.89;34.61
14383;BME280;7275;50.328;8.720;2023-07-13T03:54:47;99696.16;;;23.81;34.68
14383;BME280;7275;50.328;8.720;2023-07-13T03:57:16;99704.53;;;23.78;34.61
14383;BME280;7275;50.328;8.720;2023-07-13T03:59:44;99705.38;;;23.79;34.93
14383;BME280;7275;50.328;8.720;2023-07-13T04:02:12;99697.44;;;23.77;35.11
14383;BME280;7275;50.328;8.720;2023-07-13T04:04:40;99709.91;;;23.78;35.23
14383;BME280;7275;50.328;8.720;2023-07-13T04:07:07;99703.53;;;23.79;34.92
14383;BME280;7275;50.328;8.720;2023-07-13T04:09:35;99706.25;;;23.79;35.02
14383;BME280;7275;50.328;8.720;2023-07-13T04:12:03;99700.84;;;23.79;35.52
14383;BME280;7275;50.328;8.720;2023-07-13T04:14:32;99703.81;;;23.76;35.11
14383;BME280;7275;50.328;8.720;2023-07-13T04:17:00;99704.22;;;23.72;34.93
14383;BME280;7275;50.328;8.720;2023-07-13T04:19:28;99698.25;;;23.68;34.81
14383;BME280;7275;50.328;8.720;2023-07-13T04:21:55;99703.50;;;23.70;35.01
14383;BME280;7275;50.328;8.720;2023-07-13T04:24:23;99692.44;;;23.73;35.34
14383;BME280;7275;50.328;8.720;2023-07-13T04:26:50;99699.28;;;23.77;35.84
14383;BME280;7275;50.328;8.720;2023-07-13T04:29:18;99698.16;;;23.79;35.63
14383;BME280;7275;50.328;8.720;2023-07-13T04:31:47;99701.41;;;23.83;35.75
14383;BME280;7275;50.328;8.720;2023-07-13T04:34:14;99708.22;;;23.87;36.23
14383;BME280;7275;50.328;8.720;2023-07-13T04:36:43;99707.09;;;23.90;36.02
14383;BME280;7275;50.328;8.720;2023-07-13T04:39:10;99702.56;;;23.90;35.69
14383;BME280;7275;50.328;8.720;2023-07-13T04:41:37;99705.97;;;23.92;35.85
14383;BME280;7275;50.328;8.720;2023-07-13T04:44:04;99703.84;;;23.96;35.65
14383;BME280;7275;50.328;8.720;2023-07-13T04:46:32;99703.41;;;24.00;35.82
14383;BME280;7275;50.328;8.720;2023-07-13T04:49:01;99704.72;;;24.06;35.95
14383;BME280;7275;50.328;8.720;2023-07-13T04:51:30;99708.72;;;24.11;36.27
14383;BME280;7275;50.328;8.720;2023-07-13T04:53:57;99702.75;;;24.17;36.04
14383;BME280;7275;50.328;8.720;2023-07-13T04:56:27;99702.88;;;24.25;36.10
14383;BME280;7275;50.328;8.720;2023-07-13T04:58:54;99705.00;;;24.31;35.89
14383;BME280;7275;50.328;8.720;2023-07-13T05:01:22;99706.41;;;24.35;35.91
14383;BME280;7275;50.328;8.720;2023-07-13T05:03:50;99707.66;;;24.41;36.08
14383;BME280;7275;50.328;8.720;2023-07-13T05:06:18;99702.69;;;24.46;35.64
14383;BME280;7275;50.328;8.720;2023-07-13T05:08:46;99702.13;;;24.52;35.35
14383;BME280;7275;50.328;8.720;2023-07-13T05:11:14;99706.09;;;24.57;35.15
14383;BME280;7275;50.328;8.720;2023-07-13T05:13:41;99706.66;;;24.61;34.88
14383;BME280;7275;50.328;8.720;2023-07-13T05:16:09;99708.22;;;24.64;34.72
14383;BME280;7275;50.328;8.720;2023-07-13T05:18:36;99708.78;;;24.67;34.46
14383;BME280;7275;50.328;8.720;2023-07-13T05:21:10;99714.59;;;24.72;34.61
14383;BME280;7275;50.328;8.720;2023-07-13T05:23:40;99713.34;;;24.76;34.46
14383;BME280;7275;50.328;8.720;2023-07-13T05:26:09;99709.19;;;24.82;34.49
14383;BME280;7275;50.328;8.720;2023-07-13T05:28:37;99706.06;;;24.86;34.37
14383;BME280;7275;50.328;8.720;2023-07-13T05:31:07;99714.44;;;24.93;34.36
14383;BME280;7275;50.328;8.720;2023-07-13T05:33:36;99706.88;;;24.96;34.45
14383;BME280;7275;50.328;8.720;2023-07-13T05:36:03;99706.28;;;25.02;34.48
14383;BME280;7275;50.328;8.720;2023-07-13T05:38:31;99705.25;;;25.03;33.93
14383;BME280;7275;50.328;8.720;2023-07-13T05:41:00;99705.69;;;25.08;33.83
14383;BME280;7275;50.328;8.720;2023-07-13T05:43:31;99708.94;;;25.12;33.80
14383;BME280;7275;50.328;8.720;2023-07-13T05:45:59;99707.63;;;25.16;33.26
14383;BME280;7275;50.328;8.720;2023-07-13T05:48:26;99706.03;;;25.23;33.26
14383;BME280;7275;50.328;8.720;2023-07-13T05:50:54;99708.16;;;25.29;32.96
14383;BME280;7275;50.328;8.720;2023-07-13T05:53:21;99705.16;;;25.32;33.20
14383;BME280;7275;50.328;8.720;2023-07-13T05:55:49;99703.53;;;25.39;32.99
14383;BME280;7275;50.328;8.720;2023-07-13T05:58:20;99707.22;;;25.48;32.89
14383;BME280;7275;50.328;8.720;2023-07-13T06:00:48;99698.34;;;25.55;32.63
14383;BME280;7275;50.328;8.720;2023-07-13T06:03:16;99712.13;;;25.62;32.43
14383;BME280;7275;50.328;8.720;2023-07-13T06:05:44;99715.41;;;25.65;32.05
14383;BME280;7275;50.328;8.720;2023-07-13T06:08:11;99707.28;;;25.65;32.23
14383;BME280;7275;50.328;8.720;2023-07-13T06:10:39;99710.06;;;25.73;32.40
14383;BME280;7275;50.328;8.720;2023-07-13T06:13:06;99711.88;;;25.82;32.18
14383;BME280;7275;50.328;8.720;2023-07-13T06:15:35;99714.09;;;25.87;32.29
14383;BME280;7275;50.328;8.720;2023-07-13T06:18:03;99714.31;;;25.93;32.09
14383;BME280;7275;50.328;8.720;2023-07-13T06:20:33;99718.31;;;25.99;31.82
14383;BME280;7275;50.328;8.720;2023-07-13T06:23:01;99717.50;;;26.06;31.92
14383;BME280;7275;50.328;8.720;2023-07-13T06:25:29;99716.91;;;26.12;31.76
14383;BME280;7275;50.328;8.720;2023-07-13T06:27:56;99726.06;;;26.11;31.47
14383;BME280;7275;50.328;8.720;2023-07-13T06:30:24;99716.41;;;26.09;31.58
14383;BME280;7275;50.328;8.720;2023-07-13T06:32:53;99722.50;;;26.11;31.75
14383;BME280;7275;50.328;8.720;2023-07-13T06:35:21;99727.13;;;26.19;31.71
14383;BME280;7275;50.328;8.720;2023-07-13T06:37:49;99733.66;;;26.26;31.59
14383;BME280;7275;50.328;8.720;2023-07-13T06:40:17;99729.28;;;26.33;31.48
14383;BME280;7275;50.328;8.720;2023-07-13T06:42:44;99743.25;;;26.38;31.35
14383;BME280;7275;50.328;8.720;2023-07-13T06:45:12;99742.94;;;26.41;31.30
14383;BME280;7275;50.328;8.720;2023-07-13T06:47:39;99729.91;;;26.44;31.47
14383;BME280;7275;50.328;8.720;2023-07-13T06:50:09;99738.81;;;26.54;31.20
14383;BME280;7275;50.328;8.720;2023-07-13T06:52:37;99743.44;;;26.62;31.36
14383;BME280;7275;50.328;8.720;2023-07-13T06:55:05;99743.81;;;26.67;31.03
14383;BME280;7275;50.328;8.720;2023-07-13T06:57:33;99750.38;;;26.74;30.81
14383;BME280;7275;50.328;8.720;2023-07-13T07:00:01;99750.41;;;26.82;31.07
14383;BME280;7275;50.328;8.720;2023-07-13T07:02:28;99753.19;;;26.90;30.98
14383;BME280;7275;50.328;8.720;2023-07-13T07:04:56;99747.81;;;26.98;30.96
14383;BME280;7275;50.328;8.720;2023-07-13T07:07:25;99747.84;;;27.06;30.23
14383;BME280;7275;50.328;8.720;2023-07-13T07:09:52;99737.69;;;27.08;30.57
14383;BME280;7275;50.328;8.720;2023-07-13T07:12:20;99753.50;;;27.13;30.29
14383;BME280;7275;50.328;8.720;2023-07-13T07:14:47;99751.66;;;27.21;30.47
14383;BME280;7275;50.328;8.720;2023-07-13T07:17:15;99756.63;;;27.26;30.23
14383;BME280;7275;50.328;8.720;2023-07-13T07:19:42;99756.28;;;27.29;30.52
14383;BME280;7275;50.328;8.720;2023-07-13T07:22:10;99755.97;;;27.32;30.22
14383;BME280;7275;50.328;8.720;2023-07-13T07:24:39;99763.50;;;27.38;30.10
14383;BME280;7275;50.328;8.720;2023-07-13T07:27:06;99758.66;;;27.49;29.81
14383;BME280;7275;50.328;8.720;2023-07-13T07:29:37;99760.19;;;27.60;30.01
14383;BME280;7275;50.328;8.720;2023-07-13T07:32:12;99764.81;;;27.67;30.03
14383;BME280;7275;50.328;8.720;2023-07-13T07:34:59;99759.63;;;27.82;30.00
14383;BME280;7275;50.328;8.720;2023-07-13T07:37:27;99774.94;;;27.91;29.66
14383;BME280;7275;50.328;8.720;2023-07-13T07:39:58;99763.72;;;27.94;28.94
14383;BME280;7275;50.328;8.720;2023-07-13T07:42:29;99768.88;;;27.97;29.27
14383;BME280;7275;50.328;8.720;2023-07-13T07:44:56;99775.81;;;28.00;29.17
14383;BME280;7275;50.328;8.720;2023-07-13T07:47:24;99776.69;;;28.08;29.78
14383;BME280;7275;50.328;8.720;2023-07-13T07:49:52;99784.03;;;28.24;29.43
14383;BME280;7275;50.328;8.720;2023-07-13T07:52:20;99764.34;;;28.30;28.56
14383;BME280;7275;50.328;8.720;2023-07-13T07:54:47;99762.97;;;28.34;29.49
14383;BME280;7275;50.328;8.720;2023-07-13T07:57:19;99763.66;;;28.36;29.27
14383;BME280;7275;50.328;8.720;2023-07-13T07:59:49;99775.03;;;28.31;28.32
14383;BME280;7275;50.328;8.720;2023-07-13T08:02:20;99775.53;;;28.27;28.50
14383;BME280;7275;50.328;8.720;2023-07-13T08:04:51;99772.47;;;28.22;28.06
14383;BME280;7275;50.328;8.720;2023-07-13T08:07:21;99776.75;;;28.24;28.64
14383;BME280;7275;50.328;8.720;2023-07-13T08:09:52;99776.56;;;28.26;27.99
14383;BME280;7275;50.328;8.720;2023-07-13T08:12:21;99765.34;;;28.29;28.05
14383;BME280;7275;50.328;8.720;2023-07-13T08:14:51;99774.91;;;28.41;28.13
14383;BME280;7275;50.328;8.720;2023-07-13T08:17:20;99774.91;;;28.49;28.53
14383;BME280;7275;50.328;8.720;2023-07-13T08:19:47;99779.00;;;28.61;28.08
14383;BME280;7275;50.328;8.720;2023-07-13T08:22:15;99778.50;;;28.66;27.77
14383;BME280;7275;50.328;8.720;2023-07-13T08:24:43;99769.97;;;28.77;28.08
14383;BME280;7275;50.328;8.720;2023-07-13T08:27:11;99783.41;;;28.86;27.86
14383;BME280;7275;50.328;8.720;2023-07-13T08:29:40;99785.78;;;28.97;27.40
14383;BME280;7275;50.328;8.720;2023-07-13T08:32:08;99775.91;;;29.04;27.07
14383;BME280;7275;50.328;8.720;2023-07-13T08:34:37;99776.44;;;29.16;27.03
14383;BME280;7275;50.328;8.720;2023-07-13T08:37:05;99781.84;;;29.24;26.56
14383;BME280;7275;50.328;8.720;2023-07-13T08:39:33;99784.22;;;29.27;26.54
14383;BME280;7275;50.328;8.720;2023-07-13T08:42:05;99788.44;;;29.38;26.31
14383;BME280;7275;50.328;8.720;2023-07-13T08:44:40;99793.53;;;29.49;26.77
14383;BME280;7275;50.328;8.720;2023-07-13T08:47:14;99783.63;;;29.56;26.82
14383;BME280;7275;50.328;8.720;2023-07-13T08:49:44;99784.28;;;29.66;26.67
14383;BME280;7275;50.328;8.720;2023-07-13T08:52:16;99791.94;;;29.70;25.67
14383;BME280;7275;50.328;8.720;2023-07-13T08:54:50;99787.00;;;29.66;25.55
14383;BME280;7275;50.328;8.720;2023-07-13T08:57:20;99794.66;;;29.70;25.50
14383;BME280;7275;50.328;8.720;2023-07-13T08:59:51;99769.94;;;29.80;25.64
14383;BME280;7275;50.328;8.720;2023-07-13T09:02:26;99779.34;;;30.00;25.42
14383;BME280;7275;50.328;8.720;2023-07-13T09:04:58;99775.88;;;30.14;25.74
14383;BME280;7275;50.328;8.720;2023-07-13T09:07:39;99780.41;;;30.30;25.77
14383;BME280;7275;50.328;8.720;2023-07-13T09:10:14;99772.47;;;30.43;25.00
14383;BME280;7275;50.328;8.720;2023-07-13T09:12:51;99777.97;;;30.57;25.17
14383;BME280;7275;50.328;8.720;2023-07-13T09:15:31;99770.03;;;30.70;25.17
14383;BME280;7275;50.328;8.720;2023-07-13T09:18:01;99761.91;;;30.85;25.05
14383;BME280;7275;50.328;8.720;2023-07-13T09:20:34;99772.47;;;31.03;24.83
14383;BME280;7275;50.328;8.720;2023-07-13T09:23:05;99774.56;;;31.15;24.42
14383;BME280;7275;50.328;8.720;2023-07-13T09:25:35;99768.00;;;31.24;24.48
14383;BME280;7275;50.328;8.720;2023-07-13T09:28:12;99773.56;;;31.31;24.42
14383;BME280;7275;50.328;8.720;2023-07-13T09:30:46;99768.00;;;31.39;24.10
14383;BME280;7275;50.328;8.720;2023-07-13T09:33:19;99767.72;;;31.48;24.21
14383;BME280;7275;50.328;8.720;2023-07-13T09:35:47;99767.25;;;31.60;24.21
14383;BME280;7275;50.328;8.720;2023-07-13T09:38:17;99749.88;;;31.67;24.35
14383;BME280;7275;50.328;8.720;2023-07-13T09:41:10;99768.09;;;31.75;23.94
14383;BME280;7275;50.328;8.720;2023-07-13T09:44:01;99767.91;;;31.76;24.31
14383;BME280;7275;50.328;8.720;2023-07-13T09:46:30;99760.16;;;31.80;23.27
14383;BME280;7275;50.328;8.720;2023-07-13T09:48:58;99769.50;;;31.85;23.28
14383;BME280;7275;50.328;8.720;2023-07-13T09:51:25;99757.41;;;31.94;23.39
14383;BME280;7275;50.328;8.720;2023-07-13T09:53:54;99768.06;;;32.04;22.96
14383;BME280;7275;50.328;8.720;2023-07-13T09:56:23;99758.22;;;32.09;22.48
14383;BME280;7275;50.328;8.720;2023-07-13T09:58:51;99761.69;;;32.18;22.35
14383;BME280;7275;50.328;8.720;2023-07-13T10:01:33;99747.63;;;32.21;22.79
14383;BME280;7275;50.328;8.720;2023-07-13T10:04:10;99759.75;;;32.33;22.04
14383;BME280;7275;50.328;8.720;2023-07-13T10:06:39;99756.25;;;32.39;21.64
14383;BME280;7275;50.328;8.720;2023-07-13T10:09:09;99763.88;;;32.44;22.25
14383;BME280;7275;50.328;8.720;2023-07-13T10:11:39;99754.81;;;32.43;22.01
14383;BME280;7275;50.328;8.720;2023-07-13T10:14:12;99754.59;;;32.45;21.94
14383;BME280;7275;50.328;8.720;2023-07-13T10:16:42;99759.16;;;32.52;21.85
14383;BME280;7275;50.328;8.720;2023-07-13T10:19:13;99752.09;;;32.64;21.82
14383;BME280;7275;50.328;8.720;2023-07-13T10:21:50;99757.88;;;32.76;21.81
14383;BME280;7275;50.328;8.720;2023-07-13T10:24:21;99746.38;;;32.87;21.62
14383;BME280;7275;50.328;8.720;2023-07-13T10:26:52;99747.94;;;32.96;21.84
14383;BME280;7275;50.328;8.720;2023-07-13T10:29:23;99744.13;;;32.97;21.71
14383;BME280;7275;50.328;8.720;2023-07-13T10:31:54;99750.41;;;33.12;22.06
14383;BME280;7275;50.328;8.720;2023-07-13T10:34:23;99740.13;;;33.21;21.62
14383;BME280;7275;50.328;8.720;2023-07-13T10:36:51;99758.28;;;33.28;21.39
14383;BME280;7275;50.328;8.720;2023-07-13T10:39:21;99745.19;;;33.24;21.22
14383;BME280;7275;50.328;8.720;2023-07-13T10:41:53;99740.97;;;33.21;20.81
14383;BME280;7275;50.328;8.720;2023-07-13T10:44:24;99752.28;;;33.12;20.69
14383;BME280;7275;50.328;8.720;2023-07-13T10:46:58;99746.44;;;32.93;20.87
14383;BME280;7275;50.328;8.720;2023-07-13T10:49:28;99758.50;;;32.78;20.82
14383;BME280;7275;50.328;8.720;2023-07-13T10:51:57;99750.84;;;32.67;21.29
14383;BME280;7275;50.328;8.720;2023-07-13T10:54:27;99759.59;;;32.56;21.04
14383;BME280;7275;50.328;8.720;2023-07-13T10:57:10;99752.16;;;32.50;21.38
14383;BME280;7275;50.328;8.720;2023-07-13T10:59:43;99737.03;;;32.54;21.37
14383;BME280;7275;50.328;8.720;2023-07-13T11:02:23;99745.31;;;32.60;21.33
14383;BME280;7275;50.328;8.720;2023-07-13T11:04:53;99737.75;;;32.62;21.28
14383;BME280;7275;50.328;8.720;2023-07-13T11:07:26;99749.41;;;32.71;21.50
14383;BME280;7275;50.328;8.720;2023-07-13T11:09:55;99743.19;;;32.83;21.19
14383;BME280;7275;50.328;8.720;2023-07-13T11:12:52;99749.78;;;32.89;20.87
14383;BME280;7275;50.328;8.720;2023-07-13T11:15:42;99732.88;;;33.07;21.31
14383;BME280;7275;50.328;8.720;2023-07-13T11:18:21;99755.75;;;33.27;20.74
14383;BME280;7275;50.328;8.720;2023-07-13T11:20:49;99733.88;;;33.33;20.46
14383;BME280;7275;50.328;8.720;2023-07-13T11:23:21;99738.56;;;33.39;20.42
14383;BME280;7275;50.328;8.720;2023-07-13T11:25:54;99738.13;;;33.42;20.28
14383;BME280;7275;50.328;8.720;2023-07-13T11:28:24;99736.94;;;33.51;20.35
14383;BME280;7275;50.328;8.720;2023-07-13T11:31:03;99734.75;;;33.74;20.34
14383;BME280;7275;50.328;8.720;2023-07-13T11:33:55;99741.56;;;33.92;20.43
14383;BME280;7275;50.328;8.720;2023-07-13T11:36:30;99732.50;;;33.98;20.16
14383;BME280;7275;50.328;8.720;2023-07-13T11:39:02;99753.03;;;34.02;20.01
14383;BME280;7275;50.328;8.720;2023-07-13T11:41:34;99738.72;;;34.13;19.71
14383;BME280;7275;50.328;8.720;2023-07-13T11:44:07;99727.13;;;34.37;19.73
14383;BME280;7275;50.328;8.720;2023-07-13T11:46:35;99740.44;;;34.46;19.49
14383;BME280;7275;50.328;8.720;2023-07-13T11:49:05;99742.81;;;34.49;19.64
14383;BME280;7275;50.328;8.720;2023-07-13T11:51:35;99732.00;;;34.41;19.52
14383;BME280;7275;50.328;8.720;2023-07-13T11:54:06;99730.06;;;34.29;19.56
14383;BME280;7275;50.328;8.720;2023-07-13T11:56:39;99735.13;;;34.32;19.94
14383;BME280;7275;50.328;8.720;2023-07-13T11:59:07;99733.88;;;34.34;19.29
14383;BME280;7275;50.328;8.720;2023-07-13T12:01:43;99723.34;;;34.31;19.82
14383;BME280;7275;50.328;8.720;2023-07-13T12:04:19;99732.59;;;34.24;19.17
14383;BME280;7275;50.328;8.720;2023-07-13T12:06:54;99741.47;;;34.13;20.10
14383;BME280;7275;50.328;8.720;2023-07-13T12:09:22;99728.56;;;34.07;19.57
14383;BME280;7275;50.328;8.720;2023-07-13T12:11:51;99734.69;;;34.09;19.84
14383;BME280;7275;50.328;8.720;2023-07-13T12:14:19;99731.72;;;34.04;19.65
14383;BME280;7275;50.328;8.720;2023-07-13T12:16:51;99739.09;;;34.03;20.14
14383;BME280;7275;50.328;8.720;2023-07-13T12:19:22;99734.25;;;34.05;19.99
14383;BME280;7275;50.328;8.720;2023-07-13T12:21:52;99750.28;;;34.02;20.39
14383;BME280;7275;50.328;8.720;2023-07-13T12:24:21;99744.34;;;33.98;20.15
14383;BME280;7275;50.328;8.720;2023-07-13T12:26:55;99754.47;;;33.98;20.41
14383;BME280;7275;50.328;8.720;2023-07-13T12:29:22;99739.84;;;33.91;19.96
14383;BME280;7275;50.328;8.720;2023-07-13T12:31:50;99742.19;;;33.87;20.30
14383;BME280;7275;50.328;8.720;2023-07-13T12:34:21;99752.09;;;33.88;20.68
14383;BME280;7275;50.328;8.720;2023-07-13T12:36:51;99756.53;;;33.89;20.30
14383;BME280;7275;50.328;8.720;2023-07-13T12:39:22;99759.06;;;33.91;20.23
14383;BME280;7275;50.328;8.720;2023-07-13T12:41:51;99753.75;;;33.82;20.54
14383;BME280;7275;50.328;8.720;2023-07-13T12:44:25;99750.94;;;33.69;20.15
14383;BME280;7275;50.328;8.720;2023-07-13T12:46:57;99751.75;;;33.57;20.04
14383;BME280;7275;50.328;8.720;2023-07-13T12:49:30;99760.53;;;33.46;19.84
14383;BME280;7275;50.328;8.720;2023-07-13T12:52:03;99754.97;;;33.33;20.07
14383;BME280;7275;50.328;8.720;2023-07-13T12:54:31;99763.50;;;33.17;20.05
14383;BME280;7275;50.328;8.720;2023-07-13T12:57:00;99763.84;;;33.07;20.40
14383;BME280;7275;50.328;8.720;2023-07-13T12:59:31;99765.88;;;32.98;20.99
14383;BME280;7275;50.328;8.720;2023-07-13T13:02:15;99756.28;;;32.88;20.78
14383;BME280;7275;50.328;8.720;2023-07-13T13:04:50;99767.16;;;32.75;20.80
14383;BME280;7275;50.328;8.720;2023-07-13T13:07:17;99765.94;;;32.56;21.20
14383;BME280;7275;50.328;8.720;2023-07-13T13:09:46;99765.75;;;32.43;21.46
14383;BME280;7275;50.328;8.720;2023-07-13T13:12:14;99767.97;;;32.33;21.49
14383;BME280;7275;50.328;8.720;2023-07-13T13:14:43;99767.91;;;32.26;21.61
14383;BME280;7275;50.328;8.720;2023-07-13T13:17:18;99766.13;;;32.19;21.35
14383;BME280;7275;50.328;8.720;2023-07-13T13:19:47;99782.66;;;32.11;21.51
14383;BME280;7275;50.328;8.720;2023-07-13T13:22:17;99771.06;;;32.09;21.55
14383;BME280;7275;50.328;8.720;2023-07-13T13:24:45;99773.78;;;32.09;21.50